This demonstration page uses our WeatherBlox Daily Observations layout. Learn more.

Left ArrowRight Arrow

Hourly Observations for June 20, 2015

Temp ( °F °C ) Dew Point ( °F °C ) Humidity (%) Winds ( mph kmh ) Pressure ( in mb ) Visibility ( mi km ) Precip ( " mm )
12:54 am 00:54 Clear 74 23.3 61 16.1 64 64 S 15 24 29.78 1008 10 16.0934 N/A
1:54 am 01:54 Clear 73 22.8 61 16.1 66 66 S 16 26 29.76 1008 10 16.0934 N/A
2:54 am 02:54 Clear 72 22.2 62 16.7 71 71 S 13 20 29.75 1007 10 16.0934 N/A
3:54 am 03:54 Clear 73 22.8 63 17.2 71 71 S 16 26 29.72 1007 10 16.0934 N/A
4:54 am 04:54 Clear 73 22.8 64 17.8 74 74 S 16 26 29.7 1006 10 16.0934 N/A
5:54 am 05:54 Clear 73 22.8 66 18.9 79 79 S 14 22 29.68 1005 10 16.0934 N/A
6:54 am 06:54 Sunny 72 22.2 67 19.4 84 84 NNW 6 9 29.73 1007 10 16.0934 N/A
7:54 am 07:54 Sunny 76 24.4 69 20.6 79 79 S 5 7 29.71 1006 10 16.0934 N/A
8:54 am 08:54 Sunny 79 26.1 70 21.1 74 74 SSW 10 17 29.7 1006 10 16.0934 N/A
9:54 am 09:54 Sunny 82 27.8 72 22.2 72 72 S 14 22 29.67 1005 10 16.0934 N/A
10:54 am 10:54 Sunny 86 30 71 21.7 61 61 SW 12 19 29.69 1006 10 16.0934 N/A
11:54 am 11:54 Mostly Sunny 89 31.7 71 21.7 55 55 WNW 10 17 29.7 1006 10 16.0934 N/A
12:54 pm 12:54 Mostly Cloudy 90 32.2 72 22.2 56 56 WNW 13 20 29.72 1006 10 16.0934 N/A
1:54 pm 13:54 Partly Cloudy 91 32.8 72 22.2 54 54 W 8 13 29.73 1007 10 16.0934 N/A
2:54 pm 14:54 Mostly Cloudy 90 32.2 72 22.2 56 56 N 12 19 29.74 1007 10 16.0934 N/A
3:54 pm 15:54 Partly Cloudy 89 31.7 73 22.8 59 59 N 15 24 29.75 1007 10 16.0934 N/A
4:54 pm 16:54 Mostly Sunny 89 31.7 71 21.7 55 55 NNE 18 30 29.75 1008 10 16.0934 N/A
5:54 pm 17:54 Sunny 88 31.1 69 20.6 54 54 NNE 17 28 29.75 1008 10 16.0934 N/A
6:54 pm 18:54 Sunny 87 30.6 68 20 53 53 NNE 14 22 29.75 1008 10 16.0934 N/A
7:54 pm 19:54 Sunny 84 28.9 68 20 59 59 N 10 17 29.76 1008 10 16.0934 N/A
8:54 pm 20:54 Sunny 79 26.1 67 19.4 67 67 N 6 9 29.77 1008 10 16.0934 N/A
9:54 pm 21:54 Clear 76 24.4 67 19.4 74 74 N 6 9 29.79 1009 10 16.0934 N/A

Powered by AerisWeather